sensor_id;sensor_type;location;lat;lon;timestamp;P1;durP1;ratioP1;P2;durP2;ratioP2
568;SDS011;269;48.884;9.192;2022-07-23T00:00:22;6.70;;;6.30;;
568;SDS011;269;48.884;9.192;2022-07-23T00:02:49;7.63;;;6.20;;
568;SDS011;269;48.884;9.192;2022-07-23T00:05:17;6.33;;;5.53;;
568;SDS011;269;48.884;9.192;2022-07-23T00:07:44;7.10;;;6.43;;
568;SDS011;269;48.884;9.192;2022-07-23T00:10:11;5.00;;;4.70;;
568;SDS011;269;48.884;9.192;2022-07-23T00:12:38;5.43;;;5.03;;
568;SDS011;269;48.884;9.192;2022-07-23T00:15:06;5.30;;;5.00;;
568;SDS011;269;48.884;9.192;2022-07-23T00:17:35;5.33;;;4.93;;
568;SDS011;269;48.884;9.192;2022-07-23T00:20:02;6.53;;;5.97;;
568;SDS011;269;48.884;9.192;2022-07-23T00:22:31;4.70;;;4.37;;
568;SDS011;269;48.884;9.192;2022-07-23T00:24:58;5.70;;;5.10;;
568;SDS011;269;48.884;9.192;2022-07-23T00:27:25;5.70;;;5.20;;
568;SDS011;269;48.884;9.192;2022-07-23T00:29:52;5.57;;;5.17;;
568;SDS011;269;48.884;9.192;2022-07-23T00:32:19;5.13;;;4.73;;
568;SDS011;269;48.884;9.192;2022-07-23T00:34:47;5.40;;;4.90;;
568;SDS011;269;48.884;9.192;2022-07-23T00:37:16;5.37;;;5.00;;
568;SDS011;269;48.884;9.192;2022-07-23T00:39:45;5.03;;;4.73;;
568;SDS011;269;48.884;9.192;2022-07-23T00:42:12;5.40;;;5.00;;
568;SDS011;269;48.884;9.192;2022-07-23T00:44:39;5.00;;;4.60;;
568;SDS011;269;48.884;9.192;2022-07-23T00:47:07;5.47;;;5.07;;
568;SDS011;269;48.884;9.192;2022-07-23T00:49:34;5.70;;;5.20;;
568;SDS011;269;48.884;9.192;2022-07-23T00:52:01;5.40;;;5.00;;
568;SDS011;269;48.884;9.192;2022-07-23T00:54:29;5.60;;;5.20;;
568;SDS011;269;48.884;9.192;2022-07-23T00:56:57;5.27;;;4.97;;
568;SDS011;269;48.884;9.192;2022-07-23T00:59:25;5.10;;;4.80;;
568;SDS011;269;48.884;9.192;2022-07-23T01:01:52;5.10;;;4.73;;
568;SDS011;269;48.884;9.192;2022-07-23T01:04:19;5.63;;;5.23;;
568;SDS011;269;48.884;9.192;2022-07-23T01:06:46;6.07;;;5.60;;
568;SDS011;269;48.884;9.192;2022-07-23T01:09:13;5.77;;;5.43;;
568;SDS011;269;48.884;9.192;2022-07-23T01:11:40;5.10;;;4.70;;
568;SDS011;269;48.884;9.192;2022-07-23T01:14:10;5.20;;;4.80;;
568;SDS011;269;48.884;9.192;2022-07-23T01:16:38;5.50;;;5.10;;
568;SDS011;269;48.884;9.192;2022-07-23T01:19:05;5.57;;;5.20;;
568;SDS011;269;48.884;9.192;2022-07-23T01:21:34;6.30;;;5.27;;
568;SDS011;269;48.884;9.192;2022-07-23T01:24:04;5.47;;;5.17;;
568;SDS011;269;48.884;9.192;2022-07-23T01:26:32;5.33;;;4.90;;
568;SDS011;269;48.884;9.192;2022-07-23T01:29:00;5.87;;;5.47;;
568;SDS011;269;48.884;9.192;2022-07-23T01:31:27;6.00;;;5.60;;
568;SDS011;269;48.884;9.192;2022-07-23T01:33:54;6.00;;;5.50;;
568;SDS011;269;48.884;9.192;2022-07-23T01:36:21;5.60;;;5.20;;
568;SDS011;269;48.884;9.192;2022-07-23T01:38:49;5.10;;;4.80;;
568;SDS011;269;48.884;9.192;2022-07-23T01:41:18;5.27;;;4.87;;
568;SDS011;269;48.884;9.192;2022-07-23T01:43:45;5.30;;;5.00;;
568;SDS011;269;48.884;9.192;2022-07-23T01:46:12;5.77;;;5.30;;
568;SDS011;269;48.884;9.192;2022-07-23T01:48:39;5.83;;;5.30;;
568;SDS011;269;48.884;9.192;2022-07-23T01:51:06;5.63;;;5.23;;
568;SDS011;269;48.884;9.192;2022-07-23T01:53:33;5.70;;;5.30;;
568;SDS011;269;48.884;9.192;2022-07-23T01:56:01;6.00;;;5.50;;
568;SDS011;269;48.884;9.192;2022-07-23T01:58:29;6.10;;;5.70;;
568;SDS011;269;48.884;9.192;2022-07-23T02:00:57;5.37;;;4.97;;
568;SDS011;269;48.884;9.192;2022-07-23T02:03:24;5.70;;;5.30;;
568;SDS011;269;48.884;9.192;2022-07-23T02:05:52;5.50;;;5.10;;
568;SDS011;269;48.884;9.192;2022-07-23T02:08:19;5.50;;;5.20;;
568;SDS011;269;48.884;9.192;2022-07-23T02:10:46;5.90;;;5.50;;
568;SDS011;269;48.884;9.192;2022-07-23T02:13:13;6.10;;;5.60;;
568;SDS011;269;48.884;9.192;2022-07-23T02:15:42;5.50;;;5.10;;
568;SDS011;269;48.884;9.192;2022-07-23T02:18:09;5.90;;;5.50;;
568;SDS011;269;48.884;9.192;2022-07-23T02:20:36;6.87;;;6.27;;
568;SDS011;269;48.884;9.192;2022-07-23T02:23:04;6.17;;;5.77;;
568;SDS011;269;48.884;9.192;2022-07-23T02:25:32;5.03;;;4.73;;
568;SDS011;269;48.884;9.192;2022-07-23T02:27:59;5.63;;;5.23;;
568;SDS011;269;48.884;9.192;2022-07-23T02:30:26;5.83;;;5.40;;
568;SDS011;269;48.884;9.192;2022-07-23T02:32:55;5.37;;;4.90;;
568;SDS011;269;48.884;9.192;2022-07-23T02:35:22;5.23;;;4.93;;
568;SDS011;269;48.884;9.192;2022-07-23T02:37:49;5.67;;;5.37;;
568;SDS011;269;48.884;9.192;2022-07-23T02:40:16;5.57;;;5.27;;
568;SDS011;269;48.884;9.192;2022-07-23T02:42:43;5.43;;;5.03;;
568;SDS011;269;48.884;9.192;2022-07-23T02:45:11;5.87;;;5.47;;
568;SDS011;269;48.884;9.192;2022-07-23T02:47:40;5.97;;;5.57;;
568;SDS011;269;48.884;9.192;2022-07-23T02:50:08;5.60;;;5.20;;
568;SDS011;269;48.884;9.192;2022-07-23T02:52:37;5.20;;;4.90;;
568;SDS011;269;48.884;9.192;2022-07-23T02:55:05;5.97;;;5.57;;
568;SDS011;269;48.884;9.192;2022-07-23T02:57:32;5.47;;;5.07;;
568;SDS011;269;48.884;9.192;2022-07-23T03:00:00;5.53;;;5.10;;
568;SDS011;269;48.884;9.192;2022-07-23T03:02:27;5.97;;;5.57;;
568;SDS011;269;48.884;9.192;2022-07-23T03:04:54;5.30;;;4.90;;
568;SDS011;269;48.884;9.192;2022-07-23T03:07:23;5.40;;;5.10;;
568;SDS011;269;48.884;9.192;2022-07-23T03:09:50;6.30;;;5.90;;
568;SDS011;269;48.884;9.192;2022-07-23T03:12:17;6.57;;;6.17;;
568;SDS011;269;48.884;9.192;2022-07-23T03:14:44;6.00;;;5.60;;
568;SDS011;269;48.884;9.192;2022-07-23T03:17:11;6.30;;;5.90;;
568;SDS011;269;48.884;9.192;2022-07-23T03:19:39;6.23;;;5.83;;
568;SDS011;269;48.884;9.192;2022-07-23T03:22:06;6.53;;;6.13;;
568;SDS011;269;48.884;9.192;2022-07-23T03:24:35;6.67;;;6.17;;
568;SDS011;269;48.884;9.192;2022-07-23T03:27:20;6.90;;;6.30;;
568;SDS011;269;48.884;9.192;2022-07-23T03:29:48;6.00;;;5.60;;
568;SDS011;269;48.884;9.192;2022-07-23T03:32:15;5.70;;;5.30;;
568;SDS011;269;48.884;9.192;2022-07-23T03:34:42;5.87;;;5.47;;
568;SDS011;269;48.884;9.192;2022-07-23T03:37:09;6.57;;;6.17;;
568;SDS011;269;48.884;9.192;2022-07-23T03:39:38;6.30;;;5.80;;
568;SDS011;269;48.884;9.192;2022-07-23T03:42:06;6.90;;;6.37;;
568;SDS011;269;48.884;9.192;2022-07-23T03:44:33;6.27;;;5.87;;
568;SDS011;269;48.884;9.192;2022-07-23T03:47:02;5.77;;;5.37;;
568;SDS011;269;48.884;9.192;2022-07-23T03:49:29;6.00;;;5.60;;
568;SDS011;269;48.884;9.192;2022-07-23T03:51:56;5.37;;;5.07;;
568;SDS011;269;48.884;9.192;2022-07-23T03:54:23;5.90;;;5.50;;
568;SDS011;269;48.884;9.192;2022-07-23T03:56:52;5.50;;;5.13;;
568;SDS011;269;48.884;9.192;2022-07-23T03:59:19;5.60;;;5.20;;
568;SDS011;269;48.884;9.192;2022-07-23T04:01:46;5.10;;;4.80;;
568;SDS011;269;48.884;9.192;2022-07-23T04:04:13;5.90;;;5.50;;
568;SDS011;269;48.884;9.192;2022-07-23T04:06:40;5.53;;;5.13;;
568;SDS011;269;48.884;9.192;2022-07-23T04:09:07;5.90;;;5.40;;
568;SDS011;269;48.884;9.192;2022-07-23T04:11:34;5.53;;;5.20;;
568;SDS011;269;48.884;9.192;2022-07-23T04:14:04;6.17;;;5.77;;
568;SDS011;269;48.884;9.192;2022-07-23T04:16:31;5.70;;;5.30;;
568;SDS011;269;48.884;9.192;2022-07-23T04:18:58;5.60;;;5.20;;
568;SDS011;269;48.884;9.192;2022-07-23T04:21:25;6.13;;;5.73;;
568;SDS011;269;48.884;9.192;2022-07-23T04:23:52;5.40;;;5.10;;
568;SDS011;269;48.884;9.192;2022-07-23T04:26:19;5.90;;;5.50;;
568;SDS011;269;48.884;9.192;2022-07-23T04:28:46;5.37;;;4.97;;
568;SDS011;269;48.884;9.192;2022-07-23T04:31:15;5.90;;;5.40;;
568;SDS011;269;48.884;9.192;2022-07-23T04:33:43;5.70;;;5.23;;
568;SDS011;269;48.884;9.192;2022-07-23T04:36:10;5.80;;;5.30;;
568;SDS011;269;48.884;9.192;2022-07-23T04:38:37;5.97;;;5.57;;
568;SDS011;269;48.884;9.192;2022-07-23T04:41:04;6.07;;;5.60;;
568;SDS011;269;48.884;9.192;2022-07-23T04:43:32;5.40;;;5.10;;
568;SDS011;269;48.884;9.192;2022-07-23T04:45:59;6.00;;;5.60;;
568;SDS011;269;48.884;9.192;2022-07-23T04:48:27;5.37;;;4.97;;
568;SDS011;269;48.884;9.192;2022-07-23T04:50:54;6.47;;;5.97;;
568;SDS011;269;48.884;9.192;2022-07-23T04:53:21;6.40;;;6.00;;
568;SDS011;269;48.884;9.192;2022-07-23T04:55:49;6.40;;;6.00;;
568;SDS011;269;48.884;9.192;2022-07-23T04:58:16;5.50;;;5.20;;
568;SDS011;269;48.884;9.192;2022-07-23T05:00:43;5.90;;;5.50;;
568;SDS011;269;48.884;9.192;2022-07-23T05:03:10;6.80;;;6.30;;
568;SDS011;269;48.884;9.192;2022-07-23T05:05:39;6.70;;;6.10;;
568;SDS011;269;48.884;9.192;2022-07-23T05:08:06;6.60;;;6.20;;
568;SDS011;269;48.884;9.192;2022-07-23T05:10:34;5.50;;;5.10;;
568;SDS011;269;48.884;9.192;2022-07-23T05:13:01;5.70;;;5.30;;
568;SDS011;269;48.884;9.192;2022-07-23T05:15:28;6.80;;;6.30;;
568;SDS011;269;48.884;9.192;2022-07-23T05:17:55;5.67;;;5.30;;
568;SDS011;269;48.884;9.192;2022-07-23T05:20:22;5.80;;;5.40;;
568;SDS011;269;48.884;9.192;2022-07-23T05:22:51;5.60;;;5.20;;
568;SDS011;269;48.884;9.192;2022-07-23T05:25:18;6.00;;;5.60;;
568;SDS011;269;48.884;9.192;2022-07-23T05:27:45;6.27;;;5.77;;
568;SDS011;269;48.884;9.192;2022-07-23T05:30:12;6.40;;;5.90;;
568;SDS011;269;48.884;9.192;2022-07-23T05:32:39;6.60;;;6.10;;
568;SDS011;269;48.884;9.192;2022-07-23T05:35:07;6.50;;;6.07;;
568;SDS011;269;48.884;9.192;2022-07-23T05:37:34;6.00;;;5.60;;
568;SDS011;269;48.884;9.192;2022-07-23T05:40:04;6.37;;;5.97;;
568;SDS011;269;48.884;9.192;2022-07-23T05:42:32;6.50;;;5.90;;
568;SDS011;269;48.884;9.192;2022-07-23T05:45:00;6.17;;;5.70;;
568;SDS011;269;48.884;9.192;2022-07-23T05:47:27;6.17;;;5.67;;
568;SDS011;269;48.884;9.192;2022-07-23T05:49:55;6.10;;;5.70;;
568;SDS011;269;48.884;9.192;2022-07-23T05:52:25;6.20;;;5.80;;
568;SDS011;269;48.884;9.192;2022-07-23T05:54:54;5.93;;;5.53;;
568;SDS011;269;48.884;9.192;2022-07-23T05:57:23;6.37;;;5.90;;
568;SDS011;269;48.884;9.192;2022-07-23T05:59:50;6.13;;;5.70;;
568;SDS011;269;48.884;9.192;2022-07-23T06:02:17;6.40;;;6.00;;
568;SDS011;269;48.884;9.192;2022-07-23T06:04:44;6.80;;;6.30;;
568;SDS011;269;48.884;9.192;2022-07-23T06:07:11;6.60;;;6.00;;
568;SDS011;269;48.884;9.192;2022-07-23T06:09:38;6.43;;;6.00;;
568;SDS011;269;48.884;9.192;2022-07-23T06:12:06;6.30;;;5.80;;
568;SDS011;269;48.884;9.192;2022-07-23T06:14:35;6.60;;;6.10;;
568;SDS011;269;48.884;9.192;2022-07-23T06:17:02;5.97;;;5.57;;
568;SDS011;269;48.884;9.192;2022-07-23T06:19:29;6.97;;;5.77;;
568;SDS011;269;48.884;9.192;2022-07-23T06:21:56;6.50;;;6.00;;
568;SDS011;269;48.884;9.192;2022-07-23T06:24:23;6.77;;;6.07;;
568;SDS011;269;48.884;9.192;2022-07-23T06:26:50;6.67;;;6.07;;
568;SDS011;269;48.884;9.192;2022-07-23T06:29:17;6.60;;;6.10;;
568;SDS011;269;48.884;9.192;2022-07-23T06:31:46;6.83;;;6.27;;
568;SDS011;269;48.884;9.192;2022-07-23T06:34:13;6.77;;;6.27;;
568;SDS011;269;48.884;9.192;2022-07-23T06:36:40;6.50;;;6.10;;
568;SDS011;269;48.884;9.192;2022-07-23T06:39:07;6.97;;;6.47;;
568;SDS011;269;48.884;9.192;2022-07-23T06:41:35;6.90;;;6.30;;
568;SDS011;269;48.884;9.192;2022-07-23T06:44:02;7.20;;;6.60;;
568;SDS011;269;48.884;9.192;2022-07-23T06:46:29;7.10;;;6.60;;
568;SDS011;269;48.884;9.192;2022-07-23T06:48:58;7.17;;;6.57;;
568;SDS011;269;48.884;9.192;2022-07-23T06:51:25;6.30;;;5.83;;
568;SDS011;269;48.884;9.192;2022-07-23T06:53:52;6.83;;;6.23;;
568;SDS011;269;48.884;9.192;2022-07-23T06:56:19;6.80;;;6.30;;
568;SDS011;269;48.884;9.192;2022-07-23T06:58:48;6.87;;;6.27;;
568;SDS011;269;48.884;9.192;2022-07-23T07:01:16;7.53;;;6.40;;
568;SDS011;269;48.884;9.192;2022-07-23T07:03:43;6.40;;;5.97;;
568;SDS011;269;48.884;9.192;2022-07-23T07:06:12;6.93;;;6.27;;
568;SDS011;269;48.884;9.192;2022-07-23T07:08:40;8.00;;;7.40;;
568;SDS011;269;48.884;9.192;2022-07-23T07:11:08;7.60;;;7.10;;
568;SDS011;269;48.884;9.192;2022-07-23T07:13:35;6.63;;;6.13;;
568;SDS011;269;48.884;9.192;2022-07-23T07:16:03;7.03;;;6.43;;
568;SDS011;269;48.884;9.192;2022-07-23T07:18:30;6.80;;;6.30;;
568;SDS011;269;48.884;9.192;2022-07-23T07:20:57;7.60;;;6.73;;
568;SDS011;269;48.884;9.192;2022-07-23T07:23:26;8.00;;;7.40;;
568;SDS011;269;48.884;9.192;2022-07-23T07:25:53;8.23;;;7.57;;
568;SDS011;269;48.884;9.192;2022-07-23T07:28:20;7.43;;;6.93;;
568;SDS011;269;48.884;9.192;2022-07-23T07:30:47;8.60;;;7.90;;
568;SDS011;269;48.884;9.192;2022-07-23T07:33:14;8.53;;;7.93;;
568;SDS011;269;48.884;9.192;2022-07-23T07:35:41;7.83;;;7.23;;
568;SDS011;269;48.884;9.192;2022-07-23T07:38:09;9.10;;;8.33;;
568;SDS011;269;48.884;9.192;2022-07-23T07:40:37;8.83;;;8.13;;
568;SDS011;269;48.884;9.192;2022-07-23T07:43:04;8.10;;;7.50;;
568;SDS011;269;48.884;9.192;2022-07-23T07:45:31;9.10;;;8.40;;
568;SDS011;269;48.884;9.192;2022-07-23T07:47:58;8.43;;;7.70;;
568;SDS011;269;48.884;9.192;2022-07-23T07:50:26;7.80;;;7.30;;
568;SDS011;269;48.884;9.192;2022-07-23T07:52:53;8.33;;;7.70;;
568;SDS011;269;48.884;9.192;2022-07-23T07:55:20;8.03;;;7.50;;
568;SDS011;269;48.884;9.192;2022-07-23T07:57:48;8.30;;;7.70;;
568;SDS011;269;48.884;9.192;2022-07-23T08:00:16;7.53;;;7.03;;
568;SDS011;269;48.884;9.192;2022-07-23T08:02:44;8.23;;;7.57;;
568;SDS011;269;48.884;9.192;2022-07-23T08:05:12;7.87;;;7.37;;
568;SDS011;269;48.884;9.192;2022-07-23T08:07:40;7.90;;;7.40;;
568;SDS011;269;48.884;9.192;2022-07-23T08:10:08;8.20;;;7.60;;
568;SDS011;269;48.884;9.192;2022-07-23T08:12:39;9.00;;;8.40;;
568;SDS011;269;48.884;9.192;2022-07-23T08:15:11;8.30;;;7.70;;
568;SDS011;269;48.884;9.192;2022-07-23T08:17:39;8.10;;;7.57;;
568;SDS011;269;48.884;9.192;2022-07-23T08:20:07;8.60;;;7.90;;
568;SDS011;269;48.884;9.192;2022-07-23T08:22:43;8.23;;;7.63;;
568;SDS011;269;48.884;9.192;2022-07-23T08:25:12;8.83;;;8.07;;
568;SDS011;269;48.884;9.192;2022-07-23T08:27:40;8.80;;;8.10;;
568;SDS011;269;48.884;9.192;2022-07-23T08:30:07;8.53;;;7.90;;
568;SDS011;269;48.884;9.192;2022-07-23T08:35:24;7.90;;;7.20;;
568;SDS011;269;48.884;9.192;2022-07-23T08:37:52;7.50;;;7.00;;
568;SDS011;269;48.884;9.192;2022-07-23T08:40:20;7.40;;;6.90;;
568;SDS011;269;48.884;9.192;2022-07-23T08:42:48;7.63;;;7.03;;
568;SDS011;269;48.884;9.192;2022-07-23T08:45:17;7.70;;;7.13;;
568;SDS011;269;48.884;9.192;2022-07-23T08:47:48;6.90;;;6.40;;
568;SDS011;269;48.884;9.192;2022-07-23T08:50:17;7.17;;;6.77;;
568;SDS011;269;48.884;9.192;2022-07-23T08:52:44;7.20;;;6.70;;
568;SDS011;269;48.884;9.192;2022-07-23T08:55:12;6.97;;;6.47;;
568;SDS011;269;48.884;9.192;2022-07-23T08:57:39;6.30;;;5.80;;
568;SDS011;269;48.884;9.192;2022-07-23T09:00:06;5.87;;;5.40;;
568;SDS011;269;48.884;9.192;2022-07-23T09:02:38;6.30;;;5.80;;
568;SDS011;269;48.884;9.192;2022-07-23T09:05:06;5.60;;;5.20;;
568;SDS011;269;48.884;9.192;2022-07-23T09:07:36;6.40;;;5.90;;
568;SDS011;269;48.884;9.192;2022-07-23T09:10:07;6.13;;;5.60;;
568;SDS011;269;48.884;9.192;2022-07-23T09:12:37;5.17;;;4.87;;
568;SDS011;269;48.884;9.192;2022-07-23T09:15:05;5.20;;;4.90;;
568;SDS011;269;48.884;9.192;2022-07-23T09:17:37;5.57;;;5.20;;
568;SDS011;269;48.884;9.192;2022-07-23T09:20:09;6.00;;;5.60;;
568;SDS011;269;48.884;9.192;2022-07-23T09:22:40;5.53;;;5.13;;
568;SDS011;269;48.884;9.192;2022-07-23T09:25:10;5.90;;;5.50;;
568;SDS011;269;48.884;9.192;2022-07-23T09:27:46;5.57;;;5.17;;
568;SDS011;269;48.884;9.192;2022-07-23T09:30:19;5.53;;;5.23;;
568;SDS011;269;48.884;9.192;2022-07-23T09:38:17;5.57;;;5.17;;
568;SDS011;269;48.884;9.192;2022-07-23T09:40:46;6.40;;;6.00;;
568;SDS011;269;48.884;9.192;2022-07-23T09:43:30;5.83;;;5.53;;
568;SDS011;269;48.884;9.192;2022-07-23T09:48:43;5.23;;;4.93;;
568;SDS011;269;48.884;9.192;2022-07-23T09:51:11;5.77;;;5.37;;
568;SDS011;269;48.884;9.192;2022-07-23T09:53:39;5.60;;;5.20;;
568;SDS011;269;48.884;9.192;2022-07-23T09:56:06;5.90;;;5.50;;
568;SDS011;269;48.884;9.192;2022-07-23T09:58:36;5.70;;;5.30;;
568;SDS011;269;48.884;9.192;2022-07-23T10:01:15;6.10;;;5.60;;
568;SDS011;269;48.884;9.192;2022-07-23T10:03:42;6.73;;;6.33;;
568;SDS011;269;48.884;9.192;2022-07-23T10:06:10;6.10;;;5.70;;
568;SDS011;269;48.884;9.192;2022-07-23T10:08:41;6.40;;;6.00;;
568;SDS011;269;48.884;9.192;2022-07-23T10:11:11;5.23;;;4.93;;
568;SDS011;269;48.884;9.192;2022-07-23T10:13:39;7.03;;;6.40;;
568;SDS011;269;48.884;9.192;2022-07-23T10:16:18;6.27;;;5.73;;
568;SDS011;269;48.884;9.192;2022-07-23T10:18:45;7.77;;;7.27;;
568;SDS011;269;48.884;9.192;2022-07-23T10:21:13;5.50;;;5.20;;
568;SDS011;269;48.884;9.192;2022-07-23T10:23:51;5.67;;;5.27;;
568;SDS011;269;48.884;9.192;2022-07-23T10:26:32;5.60;;;5.10;;
568;SDS011;269;48.884;9.192;2022-07-23T10:29:13;6.03;;;5.57;;
568;SDS011;269;48.884;9.192;2022-07-23T10:31:52;6.13;;;5.73;;
568;SDS011;269;48.884;9.192;2022-07-23T10:34:27;6.13;;;5.73;;
568;SDS011;269;48.884;9.192;2022-07-23T10:37:01;5.70;;;5.30;;
568;SDS011;269;48.884;9.192;2022-07-23T10:39:39;6.13;;;5.73;;
568;SDS011;269;48.884;9.192;2022-07-23T10:42:10;5.83;;;5.53;;
568;SDS011;269;48.884;9.192;2022-07-23T10:44:39;6.13;;;5.73;;
568;SDS011;269;48.884;9.192;2022-07-23T10:47:08;5.77;;;5.37;;
568;SDS011;269;48.884;9.192;2022-07-23T10:49:50;5.77;;;5.37;;
568;SDS011;269;48.884;9.192;2022-07-23T10:52:19;6.10;;;5.60;;
568;SDS011;269;48.884;9.192;2022-07-23T10:54:53;5.70;;;5.30;;
568;SDS011;269;48.884;9.192;2022-07-23T10:57:28;5.50;;;5.10;;
568;SDS011;269;48.884;9.192;2022-07-23T11:02:44;5.23;;;4.93;;
568;SDS011;269;48.884;9.192;2022-07-23T11:05:12;5.33;;;5.03;;
568;SDS011;269;48.884;9.192;2022-07-23T11:10:42;5.27;;;4.97;;
568;SDS011;269;48.884;9.192;2022-07-23T11:13:27;5.90;;;5.50;;
568;SDS011;269;48.884;9.192;2022-07-23T11:18:56;5.90;;;5.50;;
568;SDS011;269;48.884;9.192;2022-07-23T11:21:44;5.50;;;5.20;;
568;SDS011;269;48.884;9.192;2022-07-23T11:24:14;6.20;;;5.80;;
568;SDS011;269;48.884;9.192;2022-07-23T11:26:46;5.77;;;5.37;;
568;SDS011;269;48.884;9.192;2022-07-23T11:32:24;5.27;;;4.97;;
568;SDS011;269;48.884;9.192;2022-07-23T11:34:54;5.80;;;5.30;;
568;SDS011;269;48.884;9.192;2022-07-23T11:37:27;5.57;;;5.27;;
568;SDS011;269;48.884;9.192;2022-07-23T11:39:57;5.90;;;5.50;;
568;SDS011;269;48.884;9.192;2022-07-23T11:42:26;5.50;;;5.20;;
568;SDS011;269;48.884;9.192;2022-07-23T11:44:53;5.47;;;5.17;;
568;SDS011;269;48.884;9.192;2022-07-23T11:47:21;6.03;;;5.63;;
568;SDS011;269;48.884;9.192;2022-07-23T11:49:54;6.27;;;5.87;;
568;SDS011;269;48.884;9.192;2022-07-23T11:52:22;5.40;;;5.00;;
568;SDS011;269;48.884;9.192;2022-07-23T11:54:51;5.90;;;5.57;;
568;SDS011;269;48.884;9.192;2022-07-23T11:57:20;6.00;;;5.70;;
568;SDS011;269;48.884;9.192;2022-07-23T11:59:52;6.90;;;6.40;;
568;SDS011;269;48.884;9.192;2022-07-23T12:02:22;5.90;;;5.50;;
568;SDS011;269;48.884;9.192;2022-07-23T12:04:51;6.20;;;5.80;;
568;SDS011;269;48.884;9.192;2022-07-23T12:07:23;6.27;;;5.87;;
568;SDS011;269;48.884;9.192;2022-07-23T12:09:51;5.80;;;5.40;;
568;SDS011;269;48.884;9.192;2022-07-23T12:12:19;6.23;;;5.80;;
568;SDS011;269;48.884;9.192;2022-07-23T15:05:41;7.50;;;7.10;;
568;SDS011;269;48.884;9.192;2022-07-23T15:08:08;7.50;;;7.10;;
568;SDS011;269;48.884;9.192;2022-07-23T15:10:36;7.90;;;7.40;;
568;SDS011;269;48.884;9.192;2022-07-23T15:13:03;6.93;;;6.53;;
568;SDS011;269;48.884;9.192;2022-07-23T15:15:30;7.30;;;6.80;;
568;SDS011;269;48.884;9.192;2022-07-23T15:17:57;6.73;;;6.33;;
568;SDS011;269;48.884;9.192;2022-07-23T15:20:24;7.20;;;6.80;;
568;SDS011;269;48.884;9.192;2022-07-23T15:22:53;7.00;;;6.40;;
568;SDS011;269;48.884;9.192;2022-07-23T15:25:20;7.20;;;6.70;;
568;SDS011;269;48.884;9.192;2022-07-23T15:27:47;7.10;;;6.60;;
568;SDS011;269;48.884;9.192;2022-07-23T15:30:14;7.73;;;7.23;;
568;SDS011;269;48.884;9.192;2022-07-23T15:32:42;7.40;;;7.00;;
568;SDS011;269;48.884;9.192;2022-07-23T15:35:09;6.97;;;6.57;;
568;SDS011;269;48.884;9.192;2022-07-23T15:37:36;7.70;;;7.20;;
568;SDS011;269;48.884;9.192;2022-07-23T15:40:05;7.73;;;7.23;;
568;SDS011;269;48.884;9.192;2022-07-23T15:42:33;6.67;;;6.27;;
568;SDS011;269;48.884;9.192;2022-07-23T15:45:01;6.80;;;6.40;;
568;SDS011;269;48.884;9.192;2022-07-23T15:47:28;7.63;;;7.13;;
568;SDS011;269;48.884;9.192;2022-07-23T15:49:55;7.37;;;6.97;;
568;SDS011;269;48.884;9.192;2022-07-23T15:52:23;7.10;;;6.70;;
568;SDS011;269;48.884;9.192;2022-07-23T15:54:50;7.83;;;7.10;;
568;SDS011;269;48.884;9.192;2022-07-23T15:57:18;8.53;;;8.00;;
568;SDS011;269;48.884;9.192;2022-07-23T15:59:45;7.10;;;6.60;;
568;SDS011;269;48.884;9.192;2022-07-23T16:02:12;7.20;;;6.77;;
568;SDS011;269;48.884;9.192;2022-07-23T16:04:41;7.50;;;6.97;;
568;SDS011;269;48.884;9.192;2022-07-23T16:07:08;7.23;;;6.73;;
568;SDS011;269;48.884;9.192;2022-07-23T16:09:35;7.50;;;7.00;;
568;SDS011;269;48.884;9.192;2022-07-23T16:12:02;6.87;;;6.37;;
568;SDS011;269;48.884;9.192;2022-07-23T16:14:31;7.67;;;7.07;;
568;SDS011;269;48.884;9.192;2022-07-23T16:16:58;7.73;;;7.23;;
568;SDS011;269;48.884;9.192;2022-07-23T16:19:26;8.03;;;7.43;;
568;SDS011;269;48.884;9.192;2022-07-23T16:21:53;7.90;;;7.40;;
568;SDS011;269;48.884;9.192;2022-07-23T16:24:20;8.60;;;8.00;;
568;SDS011;269;48.884;9.192;2022-07-23T16:26:47;8.60;;;8.00;;
568;SDS011;269;48.884;9.192;2022-07-23T16:29:14;9.03;;;8.40;;
568;SDS011;269;48.884;9.192;2022-07-23T16:31:43;8.10;;;7.50;;
568;SDS011;269;48.884;9.192;2022-07-23T16:34:10;8.63;;;7.93;;
568;SDS011;269;48.884;9.192;2022-07-23T16:36:37;9.57;;;8.87;;
568;SDS011;269;48.884;9.192;2022-07-23T16:39:05;9.70;;;8.80;;
568;SDS011;269;48.884;9.192;2022-07-23T16:41:32;9.00;;;8.40;;
568;SDS011;269;48.884;9.192;2022-07-23T16:43:59;8.60;;;8.00;;
568;SDS011;269;48.884;9.192;2022-07-23T16:46:27;9.50;;;8.70;;
568;SDS011;269;48.884;9.192;2022-07-23T16:48:56;9.90;;;9.30;;
568;SDS011;269;48.884;9.192;2022-07-23T16:51:23;8.60;;;8.00;;
568;SDS011;269;48.884;9.192;2022-07-23T16:53:50;9.60;;;8.93;;
568;SDS011;269;48.884;9.192;2022-07-23T16:56:17;8.87;;;8.27;;
568;SDS011;269;48.884;9.192;2022-07-23T16:58:44;9.83;;;9.20;;
568;SDS011;269;48.884;9.192;2022-07-23T17:01:11;9.60;;;8.93;;
568;SDS011;269;48.884;9.192;2022-07-23T17:03:38;9.77;;;8.97;;
568;SDS011;269;48.884;9.192;2022-07-23T17:06:07;10.27;;;9.50;;
568;SDS011;269;48.884;9.192;2022-07-23T17:08:34;9.80;;;9.20;;
568;SDS011;269;48.884;9.192;2022-07-23T17:11:01;9.87;;;8.97;;
568;SDS011;269;48.884;9.192;2022-07-23T17:13:29;9.50;;;8.90;;
568;SDS011;269;48.884;9.192;2022-07-23T17:15:56;8.63;;;8.10;;
568;SDS011;269;48.884;9.192;2022-07-23T17:18:23;9.43;;;8.70;;
568;SDS011;269;48.884;9.192;2022-07-23T17:20:51;9.50;;;8.80;;
568;SDS011;269;48.884;9.192;2022-07-23T17:23:20;10.10;;;9.40;;
568;SDS011;269;48.884;9.192;2022-07-23T17:25:47;8.77;;;8.17;;
568;SDS011;269;48.884;9.192;2022-07-23T17:28:14;9.60;;;9.00;;
568;SDS011;269;48.884;9.192;2022-07-23T17:30:41;9.63;;;8.93;;
568;SDS011;269;48.884;9.192;2022-07-23T17:33:08;9.43;;;8.80;;
568;SDS011;269;48.884;9.192;2022-07-23T17:35:36;10.30;;;9.50;;
568;SDS011;269;48.884;9.192;2022-07-23T17:38:03;9.80;;;9.20;;
568;SDS011;269;48.884;9.192;2022-07-23T17:40:32;9.40;;;8.70;;
568;SDS011;269;48.884;9.192;2022-07-23T17:42:59;10.23;;;9.37;;
568;SDS011;269;48.884;9.192;2022-07-23T17:45:26;9.73;;;9.03;;
568;SDS011;269;48.884;9.192;2022-07-23T17:47:53;10.47;;;9.57;;
568;SDS011;269;48.884;9.192;2022-07-23T17:50:21;9.77;;;8.97;;
568;SDS011;269;48.884;9.192;2022-07-23T17:52:49;10.27;;;9.47;;
568;SDS011;269;48.884;9.192;2022-07-23T17:55:18;9.97;;;9.27;;
568;SDS011;269;48.884;9.192;2022-07-23T17:57:47;10.37;;;9.67;;
568;SDS011;269;48.884;9.192;2022-07-23T18:00:16;9.83;;;9.10;;
568;SDS011;269;48.884;9.192;2022-07-23T18:02:52;9.40;;;8.70;;
568;SDS011;269;48.884;9.192;2022-07-23T18:05:19;9.87;;;9.17;;
568;SDS011;269;48.884;9.192;2022-07-23T18:07:47;9.73;;;9.13;;
568;SDS011;269;48.884;9.192;2022-07-23T18:10:15;9.93;;;9.13;;
568;SDS011;269;48.884;9.192;2022-07-23T18:12:42;9.77;;;9.07;;
568;SDS011;269;48.884;9.192;2022-07-23T18:15:11;9.50;;;8.77;;
568;SDS011;269;48.884;9.192;2022-07-23T18:17:39;9.67;;;8.97;;
568;SDS011;269;48.884;9.192;2022-07-23T18:20:06;10.03;;;9.33;;
568;SDS011;269;48.884;9.192;2022-07-23T18:22:34;10.07;;;9.40;;
568;SDS011;269;48.884;9.192;2022-07-23T18:25:02;9.80;;;9.10;;
568;SDS011;269;48.884;9.192;2022-07-23T18:27:29;9.30;;;8.80;;
568;SDS011;269;48.884;9.192;2022-07-23T18:29:56;9.40;;;8.80;;
568;SDS011;269;48.884;9.192;2022-07-23T18:32:25;9.63;;;8.87;;
568;SDS011;269;48.884;9.192;2022-07-23T18:34:52;10.20;;;9.50;;
568;SDS011;269;48.884;9.192;2022-07-23T18:37:21;9.90;;;9.30;;
568;SDS011;269;48.884;9.192;2022-07-23T18:39:48;9.73;;;8.80;;
568;SDS011;269;48.884;9.192;2022-07-23T18:42:15;9.43;;;8.80;;
568;SDS011;269;48.884;9.192;2022-07-23T18:44:42;9.73;;;9.03;;
568;SDS011;269;48.884;9.192;2022-07-23T18:47:10;9.50;;;8.90;;
568;SDS011;269;48.884;9.192;2022-07-23T18:49:38;8.93;;;8.33;;
568;SDS011;269;48.884;9.192;2022-07-23T18:52:06;9.47;;;8.87;;
568;SDS011;269;48.884;9.192;2022-07-23T18:54:34;9.47;;;8.80;;
568;SDS011;269;48.884;9.192;2022-07-23T18:57:01;9.60;;;8.90;;
568;SDS011;269;48.884;9.192;2022-07-23T18:59:28;9.27;;;8.67;;
568;SDS011;269;48.884;9.192;2022-07-23T19:01:55;9.13;;;8.40;;
568;SDS011;269;48.884;9.192;2022-07-23T19:04:22;8.97;;;8.37;;